sensor_id;sensor_type;location;lat;lon;timestamp;P1;durP1;ratioP1;P2;durP2;ratioP2
63350;SDS011;64988;51.058;17.040;2023-06-14T00:04:28;14.40;;;8.05;;
63350;SDS011;64988;51.058;17.040;2023-06-14T00:09:56;23.33;;;7.82;;
63350;SDS011;64988;51.058;17.040;2023-06-14T00:15:23;11.98;;;6.38;;
63350;SDS011;64988;51.058;17.040;2023-06-14T00:20:50;15.63;;;6.93;;
63350;SDS011;64988;51.058;17.040;2023-06-14T00:26:19;12.90;;;6.90;;
63350;SDS011;64988;51.058;17.040;2023-06-14T00:31:47;19.88;;;7.03;;
63350;SDS011;64988;51.058;17.040;2023-06-14T00:37:14;13.68;;;7.25;;
63350;SDS011;64988;51.058;17.040;2023-06-14T00:42:42;12.32;;;7.55;;
63350;SDS011;64988;51.058;17.040;2023-06-14T00:48:09;10.02;;;6.65;;
63350;SDS011;64988;51.058;17.040;2023-06-14T00:53:37;10.48;;;6.63;;
63350;SDS011;64988;51.058;17.040;2023-06-14T00:59:06;11.52;;;6.50;;
63350;SDS011;64988;51.058;17.040;2023-06-14T01:04:34;9.88;;;5.97;;
63350;SDS011;64988;51.058;17.040;2023-06-14T01:15:51;12.45;;;6.90;;
63350;SDS011;64988;51.058;17.040;2023-06-14T01:21:23;12.63;;;6.95;;
63350;SDS011;64988;51.058;17.040;2023-06-14T01:26:53;11.10;;;6.63;;
63350;SDS011;64988;51.058;17.040;2023-06-14T01:32:27;11.27;;;6.53;;
63350;SDS011;64988;51.058;17.040;2023-06-14T01:37:56;11.32;;;6.68;;
63350;SDS011;64988;51.058;17.040;2023-06-14T01:43:29;12.20;;;6.55;;
63350;SDS011;64988;51.058;17.040;2023-06-14T01:48:58;12.65;;;6.82;;
63350;SDS011;64988;51.058;17.040;2023-06-14T01:54:26;11.15;;;6.60;;
63350;SDS011;64988;51.058;17.040;2023-06-14T01:59:54;11.75;;;6.75;;
63350;SDS011;64988;51.058;17.040;2023-06-14T02:05:22;15.10;;;7.40;;
63350;SDS011;64988;51.058;17.040;2023-06-14T02:10:51;11.57;;;6.93;;
63350;SDS011;64988;51.058;17.040;2023-06-14T02:16:21;13.70;;;8.10;;
63350;SDS011;64988;51.058;17.040;2023-06-14T02:21:49;15.48;;;7.40;;
63350;SDS011;64988;51.058;17.040;2023-06-14T02:27:18;11.43;;;7.35;;
63350;SDS011;64988;51.058;17.040;2023-06-14T02:32:46;14.60;;;7.68;;
63350;SDS011;64988;51.058;17.040;2023-06-14T02:38:16;13.48;;;7.40;;
63350;SDS011;64988;51.058;17.040;2023-06-14T02:43:44;12.73;;;7.95;;
63350;SDS011;64988;51.058;17.040;2023-06-14T02:49:12;12.60;;;7.05;;
63350;SDS011;64988;51.058;17.040;2023-06-14T02:54:40;14.45;;;7.05;;
63350;SDS011;64988;51.058;17.040;2023-06-14T03:00:09;11.65;;;7.50;;
63350;SDS011;64988;51.058;17.040;2023-06-14T03:05:44;12.25;;;7.88;;
63350;SDS011;64988;51.058;17.040;2023-06-14T03:11:16;12.15;;;7.18;;
63350;SDS011;64988;51.058;17.040;2023-06-14T03:16:48;14.05;;;7.60;;
63350;SDS011;64988;51.058;17.040;2023-06-14T03:22:18;11.07;;;6.97;;
63350;SDS011;64988;51.058;17.040;2023-06-14T03:27:46;16.38;;;8.48;;
63350;SDS011;64988;51.058;17.040;2023-06-14T03:33:15;10.45;;;7.05;;
63350;SDS011;64988;51.058;17.040;2023-06-14T03:38:42;12.13;;;7.57;;
63350;SDS011;64988;51.058;17.040;2023-06-14T03:44:16;15.02;;;7.18;;
63350;SDS011;64988;51.058;17.040;2023-06-14T03:49:47;14.38;;;7.38;;
63350;SDS011;64988;51.058;17.040;2023-06-14T03:55:14;11.27;;;7.40;;
63350;SDS011;64988;51.058;17.040;2023-06-14T04:00:46;13.30;;;6.72;;
63350;SDS011;64988;51.058;17.040;2023-06-14T04:06:14;12.45;;;7.70;;
63350;SDS011;64988;51.058;17.040;2023-06-14T04:17:16;11.75;;;7.20;;
63350;SDS011;64988;51.058;17.040;2023-06-14T04:22:44;12.57;;;6.75;;
63350;SDS011;64988;51.058;17.040;2023-06-14T04:28:12;13.77;;;6.72;;
63350;SDS011;64988;51.058;17.040;2023-06-14T04:33:43;11.80;;;6.97;;
63350;SDS011;64988;51.058;17.040;2023-06-14T04:39:18;13.52;;;7.15;;
63350;SDS011;64988;51.058;17.040;2023-06-14T04:44:47;11.50;;;6.50;;
63350;SDS011;64988;51.058;17.040;2023-06-14T04:50:16;10.20;;;6.32;;
63350;SDS011;64988;51.058;17.040;2023-06-14T04:55:45;11.60;;;6.55;;
63350;SDS011;64988;51.058;17.040;2023-06-14T05:01:13;14.38;;;7.40;;
63350;SDS011;64988;51.058;17.040;2023-06-14T05:06:42;14.60;;;8.00;;
63350;SDS011;64988;51.058;17.040;2023-06-14T05:12:15;11.43;;;6.82;;
63350;SDS011;64988;51.058;17.040;2023-06-14T05:17:49;16.67;;;7.38;;
63350;SDS011;64988;51.058;17.040;2023-06-14T05:23:21;20.00;;;8.63;;
63350;SDS011;64988;51.058;17.040;2023-06-14T05:28:49;15.05;;;8.70;;
63350;SDS011;64988;51.058;17.040;2023-06-14T05:34:16;12.25;;;8.10;;
63350;SDS011;64988;51.058;17.040;2023-06-14T05:39:44;13.43;;;8.07;;
63350;SDS011;64988;51.058;17.040;2023-06-14T05:45:12;14.80;;;8.45;;
63350;SDS011;64988;51.058;17.040;2023-06-14T05:50:41;22.02;;;9.85;;
63350;SDS011;64988;51.058;17.040;2023-06-14T05:56:09;16.10;;;9.63;;
63350;SDS011;64988;51.058;17.040;2023-06-14T06:01:36;15.95;;;9.23;;
63350;SDS011;64988;51.058;17.040;2023-06-14T06:07:04;14.20;;;8.77;;
63350;SDS011;64988;51.058;17.040;2023-06-14T06:12:32;13.95;;;8.52;;
63350;SDS011;64988;51.058;17.040;2023-06-14T06:18:00;18.58;;;9.10;;
63350;SDS011;64988;51.058;17.040;2023-06-14T06:23:28;15.57;;;8.18;;
63350;SDS011;64988;51.058;17.040;2023-06-14T06:28:56;13.20;;;8.18;;
63350;SDS011;64988;51.058;17.040;2023-06-14T06:34:26;11.68;;;8.10;;
63350;SDS011;64988;51.058;17.040;2023-06-14T06:39:54;12.90;;;8.00;;
63350;SDS011;64988;51.058;17.040;2023-06-14T06:45:22;17.38;;;10.18;;
63350;SDS011;64988;51.058;17.040;2023-06-14T06:50:51;14.57;;;10.20;;
63350;SDS011;64988;51.058;17.040;2023-06-14T06:56:19;17.77;;;10.43;;
63350;SDS011;64988;51.058;17.040;2023-06-14T07:01:49;16.77;;;10.38;;
63350;SDS011;64988;51.058;17.040;2023-06-14T07:07:20;16.88;;;9.93;;
63350;SDS011;64988;51.058;17.040;2023-06-14T07:12:50;17.50;;;10.40;;
63350;SDS011;64988;51.058;17.040;2023-06-14T07:18:18;14.15;;;9.35;;
63350;SDS011;64988;51.058;17.040;2023-06-14T07:23:49;12.77;;;9.70;;
63350;SDS011;64988;51.058;17.040;2023-06-14T07:29:16;15.48;;;10.80;;
63350;SDS011;64988;51.058;17.040;2023-06-14T07:34:44;14.35;;;10.10;;
63350;SDS011;64988;51.058;17.040;2023-06-14T07:40:12;15.60;;;10.10;;
63350;SDS011;64988;51.058;17.040;2023-06-14T07:45:40;14.52;;;9.98;;
63350;SDS011;64988;51.058;17.040;2023-06-14T07:51:29;14.43;;;9.85;;
63350;SDS011;64988;51.058;17.040;2023-06-14T07:56:57;13.25;;;9.45;;
63350;SDS011;64988;51.058;17.040;2023-06-14T08:02:27;15.73;;;10.13;;
63350;SDS011;64988;51.058;17.040;2023-06-14T08:13:27;13.32;;;8.95;;
63350;SDS011;64988;51.058;17.040;2023-06-14T08:18:56;10.27;;;8.82;;
63350;SDS011;64988;51.058;17.040;2023-06-14T08:24:26;13.82;;;9.10;;
63350;SDS011;64988;51.058;17.040;2023-06-14T08:29:54;10.00;;;7.90;;
63350;SDS011;64988;51.058;17.040;2023-06-14T08:35:22;11.63;;;8.00;;
63350;SDS011;64988;51.058;17.040;2023-06-14T08:40:52;11.48;;;8.18;;
63350;SDS011;64988;51.058;17.040;2023-06-14T08:46:25;12.18;;;8.35;;
63350;SDS011;64988;51.058;17.040;2023-06-14T08:52:00;12.63;;;8.77;;
63350;SDS011;64988;51.058;17.040;2023-06-14T08:57:28;9.32;;;7.75;;
63350;SDS011;64988;51.058;17.040;2023-06-14T09:02:57;11.43;;;7.22;;
63350;SDS011;64988;51.058;17.040;2023-06-14T09:08:25;11.18;;;8.80;;
63350;SDS011;64988;51.058;17.040;2023-06-14T09:13:57;10.85;;;8.18;;
63350;SDS011;64988;51.058;17.040;2023-06-14T09:19:31;12.95;;;6.97;;
63350;SDS011;64988;51.058;17.040;2023-06-14T09:25:00;10.18;;;7.32;;
63350;SDS011;64988;51.058;17.040;2023-06-14T09:30:28;9.75;;;7.03;;
63350;SDS011;64988;51.058;17.040;2023-06-14T09:35:55;14.63;;;7.80;;
63350;SDS011;64988;51.058;17.040;2023-06-14T09:41:31;13.13;;;8.27;;
63350;SDS011;64988;51.058;17.040;2023-06-14T09:47:04;16.73;;;8.00;;
63350;SDS011;64988;51.058;17.040;2023-06-14T09:52:32;10.75;;;7.50;;
63350;SDS011;64988;51.058;17.040;2023-06-14T09:58:00;10.02;;;6.15;;
63350;SDS011;64988;51.058;17.040;2023-06-14T10:03:32;9.32;;;5.60;;
63350;SDS011;64988;51.058;17.040;2023-06-14T10:09:21;9.45;;;5.35;;
63350;SDS011;64988;51.058;17.040;2023-06-14T10:14:50;6.60;;;5.03;;
63350;SDS011;64988;51.058;17.040;2023-06-14T10:26:22;11.93;;;5.37;;
63350;SDS011;64988;51.058;17.040;2023-06-14T10:31:55;8.82;;;4.85;;
63350;SDS011;64988;51.058;17.040;2023-06-14T10:37:26;6.35;;;5.07;;
63350;SDS011;64988;51.058;17.040;2023-06-14T10:42:55;11.90;;;5.57;;
63350;SDS011;64988;51.058;17.040;2023-06-14T10:48:29;8.27;;;5.22;;
63350;SDS011;64988;51.058;17.040;2023-06-14T10:53:58;8.85;;;4.78;;
63350;SDS011;64988;51.058;17.040;2023-06-14T10:59:26;8.70;;;4.78;;
63350;SDS011;64988;51.058;17.040;2023-06-14T11:04:53;7.00;;;4.60;;
63350;SDS011;64988;51.058;17.040;2023-06-14T11:16:12;7.78;;;4.30;;
63350;SDS011;64988;51.058;17.040;2023-06-14T11:21:46;6.18;;;4.53;;
63350;SDS011;64988;51.058;17.040;2023-06-14T11:27:15;9.75;;;4.82;;
63350;SDS011;64988;51.058;17.040;2023-06-14T11:32:45;6.78;;;4.68;;
63350;SDS011;64988;51.058;17.040;2023-06-14T11:38:15;9.40;;;3.97;;
63350;SDS011;64988;51.058;17.040;2023-06-14T11:43:42;8.60;;;4.55;;
63350;SDS011;64988;51.058;17.040;2023-06-14T11:49:10;8.18;;;4.63;;
63350;SDS011;64988;51.058;17.040;2023-06-14T11:54:38;5.47;;;4.50;;
63350;SDS011;64988;51.058;17.040;2023-06-14T12:00:10;7.90;;;4.40;;
63350;SDS011;64988;51.058;17.040;2023-06-14T12:05:39;5.03;;;3.88;;
63350;SDS011;64988;51.058;17.040;2023-06-14T12:11:10;8.18;;;3.92;;
63350;SDS011;64988;51.058;17.040;2023-06-14T12:16:39;6.03;;;3.83;;
63350;SDS011;64988;51.058;17.040;2023-06-14T12:22:09;7.55;;;4.30;;
63350;SDS011;64988;51.058;17.040;2023-06-14T12:27:39;5.40;;;3.65;;
63350;SDS011;64988;51.058;17.040;2023-06-14T12:33:07;11.02;;;4.20;;
63350;SDS011;64988;51.058;17.040;2023-06-14T12:38:35;9.75;;;3.72;;
63350;SDS011;64988;51.058;17.040;2023-06-14T12:44:06;6.50;;;3.55;;
63350;SDS011;64988;51.058;17.040;2023-06-14T12:49:34;4.43;;;3.53;;
63350;SDS011;64988;51.058;17.040;2023-06-14T12:55:05;5.90;;;3.85;;
63350;SDS011;64988;51.058;17.040;2023-06-14T13:00:34;5.85;;;4.20;;
63350;SDS011;64988;51.058;17.040;2023-06-14T13:06:02;6.80;;;3.67;;
63350;SDS011;64988;51.058;17.040;2023-06-14T13:11:31;5.18;;;3.67;;
63350;SDS011;64988;51.058;17.040;2023-06-14T13:16:59;12.27;;;4.03;;
63350;SDS011;64988;51.058;17.040;2023-06-14T13:22:27;8.65;;;5.03;;
63350;SDS011;64988;51.058;17.040;2023-06-14T13:28:00;10.90;;;3.97;;
63350;SDS011;64988;51.058;17.040;2023-06-14T13:33:27;8.38;;;5.07;;
63350;SDS011;64988;51.058;17.040;2023-06-14T13:38:56;13.77;;;5.32;;
63350;SDS011;64988;51.058;17.040;2023-06-14T13:44:26;11.85;;;4.47;;
63350;SDS011;64988;51.058;17.040;2023-06-14T13:49:55;5.70;;;3.95;;
63350;SDS011;64988;51.058;17.040;2023-06-14T13:55:25;9.88;;;4.50;;
63350;SDS011;64988;51.058;17.040;2023-06-14T14:00:52;16.23;;;4.35;;
63350;SDS011;64988;51.058;17.040;2023-06-14T14:06:20;8.13;;;4.05;;
63350;SDS011;64988;51.058;17.040;2023-06-14T14:11:47;5.03;;;4.22;;
63350;SDS011;64988;51.058;17.040;2023-06-14T14:17:15;6.50;;;4.35;;
63350;SDS011;64988;51.058;17.040;2023-06-14T14:22:43;9.13;;;5.45;;
63350;SDS011;64988;51.058;17.040;2023-06-14T14:28:10;6.32;;;4.05;;
63350;SDS011;64988;51.058;17.040;2023-06-14T14:33:38;4.35;;;3.00;;
63350;SDS011;64988;51.058;17.040;2023-06-14T14:39:06;10.23;;;3.80;;
63350;SDS011;64988;51.058;17.040;2023-06-14T14:44:34;5.45;;;3.58;;
63350;SDS011;64988;51.058;17.040;2023-06-14T14:50:02;2.92;;;2.40;;
63350;SDS011;64988;51.058;17.040;2023-06-14T14:55:31;3.50;;;3.05;;
63350;SDS011;64988;51.058;17.040;2023-06-14T15:01:01;5.15;;;3.67;;
63350;SDS011;64988;51.058;17.040;2023-06-14T15:06:29;10.38;;;4.28;;
63350;SDS011;64988;51.058;17.040;2023-06-14T15:11:57;9.45;;;5.45;;
63350;SDS011;64988;51.058;17.040;2023-06-14T15:17:25;8.85;;;5.47;;
63350;SDS011;64988;51.058;17.040;2023-06-14T15:22:53;7.60;;;5.72;;
63350;SDS011;64988;51.058;17.040;2023-06-14T15:28:27;11.93;;;6.43;;
63350;SDS011;64988;51.058;17.040;2023-06-14T15:33:57;7.72;;;5.65;;
63350;SDS011;64988;51.058;17.040;2023-06-14T15:39:24;9.27;;;6.22;;
63350;SDS011;64988;51.058;17.040;2023-06-14T15:44:53;13.35;;;6.13;;
63350;SDS011;64988;51.058;17.040;2023-06-14T15:50:21;7.18;;;5.57;;
63350;SDS011;64988;51.058;17.040;2023-06-14T15:55:48;17.23;;;7.03;;
63350;SDS011;64988;51.058;17.040;2023-06-14T16:01:15;9.23;;;6.20;;
63350;SDS011;64988;51.058;17.040;2023-06-14T16:06:43;11.07;;;6.55;;
63350;SDS011;64988;51.058;17.040;2023-06-14T16:12:38;10.70;;;5.88;;
63350;SDS011;64988;51.058;17.040;2023-06-14T16:18:05;7.00;;;5.95;;
63350;SDS011;64988;51.058;17.040;2023-06-14T16:23:32;11.15;;;6.50;;
63350;SDS011;64988;51.058;17.040;2023-06-14T16:29:00;7.82;;;5.15;;
63350;SDS011;64988;51.058;17.040;2023-06-14T16:34:28;7.15;;;5.20;;
63350;SDS011;64988;51.058;17.040;2023-06-14T16:39:58;11.23;;;5.32;;
63350;SDS011;64988;51.058;17.040;2023-06-14T16:45:25;5.80;;;4.75;;
63350;SDS011;64988;51.058;17.040;2023-06-14T16:50:54;6.20;;;4.85;;
63350;SDS011;64988;51.058;17.040;2023-06-14T16:56:22;5.93;;;4.40;;
63350;SDS011;64988;51.058;17.040;2023-06-14T17:01:58;6.93;;;5.03;;
63350;SDS011;64988;51.058;17.040;2023-06-14T17:07:32;6.93;;;4.90;;
63350;SDS011;64988;51.058;17.040;2023-06-14T17:12:58;7.32;;;5.30;;
63350;SDS011;64988;51.058;17.040;2023-06-14T17:18:27;7.40;;;5.53;;
63350;SDS011;64988;51.058;17.040;2023-06-14T17:23:55;7.10;;;5.32;;
63350;SDS011;64988;51.058;17.040;2023-06-14T17:29:23;7.45;;;5.18;;
63350;SDS011;64988;51.058;17.040;2023-06-14T17:34:54;9.07;;;6.20;;
63350;SDS011;64988;51.058;17.040;2023-06-14T17:40:22;7.68;;;4.78;;
63350;SDS011;64988;51.058;17.040;2023-06-14T17:45:49;7.85;;;5.75;;
63350;SDS011;64988;51.058;17.040;2023-06-14T17:51:17;5.93;;;5.03;;
63350;SDS011;64988;51.058;17.040;2023-06-14T17:56:46;14.98;;;5.78;;
63350;SDS011;64988;51.058;17.040;2023-06-14T18:02:15;6.85;;;5.10;;
63350;SDS011;64988;51.058;17.040;2023-06-14T18:07:43;6.97;;;4.40;;
63350;SDS011;64988;51.058;17.040;2023-06-14T18:13:11;11.90;;;5.15;;
63350;SDS011;64988;51.058;17.040;2023-06-14T18:18:39;7.80;;;4.88;;
63350;SDS011;64988;51.058;17.040;2023-06-14T18:24:08;8.55;;;5.03;;
63350;SDS011;64988;51.058;17.040;2023-06-14T18:29:37;10.05;;;5.40;;
63350;SDS011;64988;51.058;17.040;2023-06-14T18:35:05;6.88;;;4.97;;
63350;SDS011;64988;51.058;17.040;2023-06-14T18:40:33;8.05;;;5.45;;
63350;SDS011;64988;51.058;17.040;2023-06-14T18:46:01;14.98;;;6.20;;
63350;SDS011;64988;51.058;17.040;2023-06-14T18:51:29;9.13;;;6.32;;
63350;SDS011;64988;51.058;17.040;2023-06-14T18:56:56;8.85;;;6.57;;
63350;SDS011;64988;51.058;17.040;2023-06-14T19:02:24;8.10;;;6.18;;
63350;SDS011;64988;51.058;17.040;2023-06-14T19:07:54;12.23;;;6.72;;
63350;SDS011;64988;51.058;17.040;2023-06-14T19:13:21;9.60;;;7.15;;
63350;SDS011;64988;51.058;17.040;2023-06-14T19:18:49;9.15;;;6.03;;
63350;SDS011;64988;51.058;17.040;2023-06-14T19:24:16;13.93;;;6.72;;
63350;SDS011;64988;51.058;17.040;2023-06-14T19:29:44;10.57;;;7.07;;
63350;SDS011;64988;51.058;17.040;2023-06-14T19:35:12;11.30;;;7.13;;
63350;SDS011;64988;51.058;17.040;2023-06-14T19:40:40;10.77;;;7.03;;
63350;SDS011;64988;51.058;17.040;2023-06-14T19:46:08;12.13;;;6.90;;
63350;SDS011;64988;51.058;17.040;2023-06-14T19:51:35;17.77;;;7.78;;
63350;SDS011;64988;51.058;17.040;2023-06-14T19:57:03;13.15;;;8.80;;
63350;SDS011;64988;51.058;17.040;2023-06-14T20:02:31;14.10;;;8.55;;
63350;SDS011;64988;51.058;17.040;2023-06-14T20:08:00;15.98;;;10.10;;
63350;SDS011;64988;51.058;17.040;2023-06-14T20:13:27;15.60;;;9.27;;
63350;SDS011;64988;51.058;17.040;2023-06-14T20:18:55;15.70;;;9.45;;
63350;SDS011;64988;51.058;17.040;2023-06-14T20:24:25;17.65;;;9.02;;
63350;SDS011;64988;51.058;17.040;2023-06-14T20:29:53;11.70;;;8.88;;
63350;SDS011;64988;51.058;17.040;2023-06-14T20:35:21;20.10;;;11.00;;
63350;SDS011;64988;51.058;17.040;2023-06-14T20:40:51;18.42;;;9.65;;
63350;SDS011;64988;51.058;17.040;2023-06-14T20:46:20;21.90;;;9.52;;
63350;SDS011;64988;51.058;17.040;2023-06-14T20:51:47;18.60;;;11.20;;
63350;SDS011;64988;51.058;17.040;2023-06-14T20:57:16;21.38;;;10.25;;
63350;SDS011;64988;51.058;17.040;2023-06-14T21:02:44;15.40;;;9.73;;
63350;SDS011;64988;51.058;17.040;2023-06-14T21:08:11;25.83;;;11.32;;
63350;SDS011;64988;51.058;17.040;2023-06-14T21:13:38;14.82;;;9.88;;
63350;SDS011;64988;51.058;17.040;2023-06-14T21:19:06;12.95;;;9.43;;
63350;SDS011;64988;51.058;17.040;2023-06-14T21:24:33;12.75;;;8.73;;
63350;SDS011;64988;51.058;17.040;2023-06-14T21:30:03;15.15;;;9.15;;
63350;SDS011;64988;51.058;17.040;2023-06-14T21:35:34;19.63;;;10.02;;
63350;SDS011;64988;51.058;17.040;2023-06-14T21:41:01;18.23;;;10.95;;
63350;SDS011;64988;51.058;17.040;2023-06-14T21:46:29;18.63;;;9.88;;
63350;SDS011;64988;51.058;17.040;2023-06-14T21:51:58;16.33;;;10.32;;
63350;SDS011;64988;51.058;17.040;2023-06-14T21:57:26;19.75;;;10.70;;
63350;SDS011;64988;51.058;17.040;2023-06-14T22:02:53;17.40;;;10.88;;
63350;SDS011;64988;51.058;17.040;2023-06-14T22:08:20;16.70;;;10.75;;
63350;SDS011;64988;51.058;17.040;2023-06-14T22:13:48;18.35;;;10.35;;
63350;SDS011;64988;51.058;17.040;2023-06-14T22:19:15;19.92;;;10.63;;
63350;SDS011;64988;51.058;17.040;2023-06-14T22:24:43;18.92;;;10.55;;
63350;SDS011;64988;51.058;17.040;2023-06-14T22:30:12;22.42;;;10.35;;
63350;SDS011;64988;51.058;17.040;2023-06-14T22:35:41;17.27;;;10.20;;
63350;SDS011;64988;51.058;17.040;2023-06-14T22:41:08;21.13;;;11.13;;
63350;SDS011;64988;51.058;17.040;2023-06-14T22:46:37;19.15;;;10.65;;
63350;SDS011;64988;51.058;17.040;2023-06-14T22:52:07;17.27;;;10.23;;
63350;SDS011;64988;51.058;17.040;2023-06-14T22:57:36;24.88;;;12.07;;
63350;SDS011;64988;51.058;17.040;2023-06-14T23:03:13;21.20;;;12.77;;
63350;SDS011;64988;51.058;17.040;2023-06-14T23:08:41;18.20;;;11.00;;
63350;SDS011;64988;51.058;17.040;2023-06-14T23:14:12;22.77;;;11.43;;
63350;SDS011;64988;51.058;17.040;2023-06-14T23:19:40;17.67;;;11.27;;
63350;SDS011;64988;51.058;17.040;2023-06-14T23:25:08;21.13;;;12.60;;
63350;SDS011;64988;51.058;17.040;2023-06-14T23:30:36;17.73;;;10.93;;
63350;SDS011;64988;51.058;17.040;2023-06-14T23:36:04;18.80;;;11.23;;
63350;SDS011;64988;51.058;17.040;2023-06-14T23:41:35;17.35;;;10.75;;
63350;SDS011;64988;51.058;17.040;2023-06-14T23:47:03;18.25;;;11.30;;
63350;SDS011;64988;51.058;17.040;2023-06-14T23:52:31;18.48;;;10.85;;
63350;SDS011;64988;51.058;17.040;2023-06-14T23:57:59;22.67;;;11.95;;
